Terminal Aerodrome Forecast
Issued by NWS San Angelo, TX

Home | Current Version | Previous Version | Text Only | Print | Product List | Glossary On
Versions: 1 2 3 4 5 6 7 8 9 10 11 12 13 14 15 16 17 18 19 20 21 22 23
450
FTUS44 KSJT 210728 AAC
TAFSJT
TAF AMD
KSJT 210728Z 2107/2206 03013G19KT 3SM BR OVC007
     FM211400 01017G25KT 6SM -SHRA VCTS OVC015CB
     FM211600 01011KT 6SM -FZRA BR BKN010
     FM212100 36011KT P6SM VCSH BKN012=

USA.gov is the U.S. government's official web portal to all federal, state and local government web resources and services.